sensor_id;sensor_type;location;lat;lon;timestamp;temperature;humidity
33139;DHT22;19501;50.948;5.316;2024-01-16T00:01:45;1.80;99.90
33139;DHT22;19501;50.948;5.316;2024-01-16T00:04:11;1.80;99.90
33139;DHT22;19501;50.948;5.316;2024-01-16T00:06:40;1.80;99.90
33139;DHT22;19501;50.948;5.316;2024-01-16T00:09:07;1.80;99.90
33139;DHT22;19501;50.948;5.316;2024-01-16T00:11:33;1.80;99.90
33139;DHT22;19501;50.948;5.316;2024-01-16T00:13:58;1.80;99.90
33139;DHT22;19501;50.948;5.316;2024-01-16T00:16:24;1.80;99.90
33139;DHT22;19501;50.948;5.316;2024-01-16T00:18:50;1.90;99.90
33139;DHT22;19501;50.948;5.316;2024-01-16T00:21:16;1.80;99.90
33139;DHT22;19501;50.948;5.316;2024-01-16T00:23:41;1.60;99.90
33139;DHT22;19501;50.948;5.316;2024-01-16T00:26:07;1.80;99.90
33139;DHT22;19501;50.948;5.316;2024-01-16T00:28:32;1.90;99.90
33139;DHT22;19501;50.948;5.316;2024-01-16T00:30:58;1.70;99.90
33139;DHT22;19501;50.948;5.316;2024-01-16T00:33:24;1.60;99.90
33139;DHT22;19501;50.948;5.316;2024-01-16T00:35:49;1.60;99.90
33139;DHT22;19501;50.948;5.316;2024-01-16T00:38:15;1.60;99.90
33139;DHT22;19501;50.948;5.316;2024-01-16T00:40:41;1.60;99.90
33139;DHT22;19501;50.948;5.316;2024-01-16T00:43:06;1.60;99.90
33139;DHT22;19501;50.948;5.316;2024-01-16T00:45:32;1.60;99.90
33139;DHT22;19501;50.948;5.316;2024-01-16T00:47:58;1.70;99.90
33139;DHT22;19501;50.948;5.316;2024-01-16T00:50:23;1.70;99.90
33139;DHT22;19501;50.948;5.316;2024-01-16T00:52:50;1.80;99.90
33139;DHT22;19501;50.948;5.316;2024-01-16T00:55:15;1.70;99.90
33139;DHT22;19501;50.948;5.316;2024-01-16T00:57:41;1.60;99.90
33139;DHT22;19501;50.948;5.316;2024-01-16T01:00:07;1.70;99.90
33139;DHT22;19501;50.948;5.316;2024-01-16T01:02:35;1.60;99.90
33139;DHT22;19501;50.948;5.316;2024-01-16T01:05:00;1.60;99.90
33139;DHT22;19501;50.948;5.316;2024-01-16T01:07:26;1.60;99.90
33139;DHT22;19501;50.948;5.316;2024-01-16T01:09:52;1.60;99.90
33139;DHT22;19501;50.948;5.316;2024-01-16T01:12:18;1.60;99.90
33139;DHT22;19501;50.948;5.316;2024-01-16T01:14:44;1.60;99.90
33139;DHT22;19501;50.948;5.316;2024-01-16T01:17:09;1.60;99.90
33139;DHT22;19501;50.948;5.316;2024-01-16T01:19:37;1.70;99.90
33139;DHT22;19501;50.948;5.316;2024-01-16T01:22:04;1.80;99.90
33139;DHT22;19501;50.948;5.316;2024-01-16T01:24:29;1.90;99.90
33139;DHT22;19501;50.948;5.316;2024-01-16T01:26:55;1.90;99.90
33139;DHT22;19501;50.948;5.316;2024-01-16T01:29:21;1.90;99.90
33139;DHT22;19501;50.948;5.316;2024-01-16T01:31:46;1.70;99.90
33139;DHT22;19501;50.948;5.316;2024-01-16T01:34:13;1.70;99.90
33139;DHT22;19501;50.948;5.316;2024-01-16T01:36:39;1.80;99.90
33139;DHT22;19501;50.948;5.316;2024-01-16T01:39:05;1.90;99.90
33139;DHT22;19501;50.948;5.316;2024-01-16T01:41:31;1.90;99.90
33139;DHT22;19501;50.948;5.316;2024-01-16T01:43:59;2.00;99.90
33139;DHT22;19501;50.948;5.316;2024-01-16T01:46:27;1.80;99.90
33139;DHT22;19501;50.948;5.316;2024-01-16T01:48:53;1.80;99.90
33139;DHT22;19501;50.948;5.316;2024-01-16T01:51:19;1.90;99.90
33139;DHT22;19501;50.948;5.316;2024-01-16T01:53:48;2.00;99.90
33139;DHT22;19501;50.948;5.316;2024-01-16T01:56:17;2.10;99.90
33139;DHT22;19501;50.948;5.316;2024-01-16T01:58:44;2.10;99.90
33139;DHT22;19501;50.948;5.316;2024-01-16T02:01:11;2.00;99.90
33139;DHT22;19501;50.948;5.316;2024-01-16T02:03:43;2.00;99.90
33139;DHT22;19501;50.948;5.316;2024-01-16T02:06:11;1.80;99.90
33139;DHT22;19501;50.948;5.316;2024-01-16T02:08:40;2.10;99.90
33139;DHT22;19501;50.948;5.316;2024-01-16T02:11:06;1.80;99.90
33139;DHT22;19501;50.948;5.316;2024-01-16T02:13:34;1.80;99.90
33139;DHT22;19501;50.948;5.316;2024-01-16T02:16:03;1.90;99.90
33139;DHT22;19501;50.948;5.316;2024-01-16T02:18:29;1.90;99.90
33139;DHT22;19501;50.948;5.316;2024-01-16T02:21:00;1.80;99.90
33139;DHT22;19501;50.948;5.316;2024-01-16T02:23:31;1.80;99.90
33139;DHT22;19501;50.948;5.316;2024-01-16T02:25:57;1.60;99.90
33139;DHT22;19501;50.948;5.316;2024-01-16T02:28:23;1.70;99.90
33139;DHT22;19501;50.948;5.316;2024-01-16T02:30:48;1.70;99.90
33139;DHT22;19501;50.948;5.316;2024-01-16T02:33:14;1.60;99.90
33139;DHT22;19501;50.948;5.316;2024-01-16T02:35:40;1.60;99.90
33139;DHT22;19501;50.948;5.316;2024-01-16T02:38:05;1.50;99.90
33139;DHT22;19501;50.948;5.316;2024-01-16T02:40:31;1.50;99.90
33139;DHT22;19501;50.948;5.316;2024-01-16T02:42:57;1.50;99.90
33139;DHT22;19501;50.948;5.316;2024-01-16T02:45:23;1.60;99.90
33139;DHT22;19501;50.948;5.316;2024-01-16T02:47:48;1.50;99.90
33139;DHT22;19501;50.948;5.316;2024-01-16T02:50:14;1.60;99.90
33139;DHT22;19501;50.948;5.316;2024-01-16T02:52:40;1.50;99.90
33139;DHT22;19501;50.948;5.316;2024-01-16T02:55:06;1.40;99.90
33139;DHT22;19501;50.948;5.316;2024-01-16T02:57:32;1.30;99.90
33139;DHT22;19501;50.948;5.316;2024-01-16T02:59:58;1.30;99.90
33139;DHT22;19501;50.948;5.316;2024-01-16T03:02:23;1.30;99.90
33139;DHT22;19501;50.948;5.316;2024-01-16T03:04:49;1.30;99.90
33139;DHT22;19501;50.948;5.316;2024-01-16T03:07:15;1.40;99.90
33139;DHT22;19501;50.948;5.316;2024-01-16T03:09:41;1.30;99.90
33139;DHT22;19501;50.948;5.316;2024-01-16T03:12:07;1.20;99.90
33139;DHT22;19501;50.948;5.316;2024-01-16T03:14:32;1.20;99.90
33139;DHT22;19501;50.948;5.316;2024-01-16T03:17:03;1.30;99.90
33139;DHT22;19501;50.948;5.316;2024-01-16T03:19:29;1.30;99.90
33139;DHT22;19501;50.948;5.316;2024-01-16T03:21:55;1.30;99.90
33139;DHT22;19501;50.948;5.316;2024-01-16T03:24:21;1.40;99.90
33139;DHT22;19501;50.948;5.316;2024-01-16T03:26:46;1.30;99.90
33139;DHT22;19501;50.948;5.316;2024-01-16T03:29:12;1.30;99.90
33139;DHT22;19501;50.948;5.316;2024-01-16T03:31:37;1.20;99.90
33139;DHT22;19501;50.948;5.316;2024-01-16T03:34:03;1.10;99.90
33139;DHT22;19501;50.948;5.316;2024-01-16T03:36:29;1.10;99.90
33139;DHT22;19501;50.948;5.316;2024-01-16T03:38:55;1.20;99.90
33139;DHT22;19501;50.948;5.316;2024-01-16T03:41:20;1.10;99.90
33139;DHT22;19501;50.948;5.316;2024-01-16T03:43:46;1.00;99.90
33139;DHT22;19501;50.948;5.316;2024-01-16T03:46:14;0.90;99.90
33139;DHT22;19501;50.948;5.316;2024-01-16T03:48:40;0.70;99.90
33139;DHT22;19501;50.948;5.316;2024-01-16T03:51:05;0.70;99.90
33139;DHT22;19501;50.948;5.316;2024-01-16T03:53:32;0.70;99.90
33139;DHT22;19501;50.948;5.316;2024-01-16T03:56:00;0.80;99.90
33139;DHT22;19501;50.948;5.316;2024-01-16T03:58:26;0.70;99.90
33139;DHT22;19501;50.948;5.316;2024-01-16T04:00:51;0.80;99.90
33139;DHT22;19501;50.948;5.316;2024-01-16T04:03:18;0.70;99.90
33139;DHT22;19501;50.948;5.316;2024-01-16T04:05:44;0.80;99.90
33139;DHT22;19501;50.948;5.316;2024-01-16T04:08:10;0.80;99.90
33139;DHT22;19501;50.948;5.316;2024-01-16T04:10:37;0.90;99.90
33139;DHT22;19501;50.948;5.316;2024-01-16T04:13:03;0.80;99.90
33139;DHT22;19501;50.948;5.316;2024-01-16T04:15:29;0.70;99.90
33139;DHT22;19501;50.948;5.316;2024-01-16T04:17:54;0.50;99.90
33139;DHT22;19501;50.948;5.316;2024-01-16T04:20:20;0.50;99.90
33139;DHT22;19501;50.948;5.316;2024-01-16T04:22:46;0.80;99.90
33139;DHT22;19501;50.948;5.316;2024-01-16T04:25:12;0.60;99.90
33139;DHT22;19501;50.948;5.316;2024-01-16T04:27:38;0.50;99.90
33139;DHT22;19501;50.948;5.316;2024-01-16T04:30:04;0.60;99.90
33139;DHT22;19501;50.948;5.316;2024-01-16T04:32:33;0.60;99.90
33139;DHT22;19501;50.948;5.316;2024-01-16T04:34:59;0.60;99.90
33139;DHT22;19501;50.948;5.316;2024-01-16T04:37:24;0.50;99.90
33139;DHT22;19501;50.948;5.316;2024-01-16T04:39:50;0.40;99.90
33139;DHT22;19501;50.948;5.316;2024-01-16T04:42:15;0.40;99.90
33139;DHT22;19501;50.948;5.316;2024-01-16T04:44:43;0.40;99.90
33139;DHT22;19501;50.948;5.316;2024-01-16T04:47:09;0.20;99.90
33139;DHT22;19501;50.948;5.316;2024-01-16T04:49:34;0.30;99.90
33139;DHT22;19501;50.948;5.316;2024-01-16T04:52:00;0.50;99.90
33139;DHT22;19501;50.948;5.316;2024-01-16T04:54:26;0.50;99.90
33139;DHT22;19501;50.948;5.316;2024-01-16T04:56:51;0.40;99.90
33139;DHT22;19501;50.948;5.316;2024-01-16T04:59:17;0.50;99.90
33139;DHT22;19501;50.948;5.316;2024-01-16T05:01:42;0.40;99.90
33139;DHT22;19501;50.948;5.316;2024-01-16T05:04:08;0.30;99.90
33139;DHT22;19501;50.948;5.316;2024-01-16T05:06:35;0.30;99.90
33139;DHT22;19501;50.948;5.316;2024-01-16T05:09:01;0.20;99.90
33139;DHT22;19501;50.948;5.316;2024-01-16T05:11:28;0.30;99.90
33139;DHT22;19501;50.948;5.316;2024-01-16T05:13:54;0.20;99.90
33139;DHT22;19501;50.948;5.316;2024-01-16T05:16:26;0.20;99.90
33139;DHT22;19501;50.948;5.316;2024-01-16T05:18:55;0.10;99.90
33139;DHT22;19501;50.948;5.316;2024-01-16T05:21:21;0.20;99.90
33139;DHT22;19501;50.948;5.316;2024-01-16T05:23:46;0.20;99.90
33139;DHT22;19501;50.948;5.316;2024-01-16T05:26:12;0.10;99.90
33139;DHT22;19501;50.948;5.316;2024-01-16T05:28:41;-0.10;99.90
33139;DHT22;19501;50.948;5.316;2024-01-16T05:31:07;-0.10;99.90
33139;DHT22;19501;50.948;5.316;2024-01-16T05:33:32;-0.20;99.90
33139;DHT22;19501;50.948;5.316;2024-01-16T05:35:58;-0.10;99.90
33139;DHT22;19501;50.948;5.316;2024-01-16T05:38:24;-0.20;99.90
33139;DHT22;19501;50.948;5.316;2024-01-16T05:40:50;-0.10;99.90
33139;DHT22;19501;50.948;5.316;2024-01-16T05:43:15;0.00;99.90
33139;DHT22;19501;50.948;5.316;2024-01-16T05:45:41;0.00;99.90
33139;DHT22;19501;50.948;5.316;2024-01-16T05:48:07;0.00;99.90
33139;DHT22;19501;50.948;5.316;2024-01-16T05:50:35;0.10;99.90
33139;DHT22;19501;50.948;5.316;2024-01-16T05:53:03;0.00;99.90
33139;DHT22;19501;50.948;5.316;2024-01-16T05:55:29;0.00;99.90
33139;DHT22;19501;50.948;5.316;2024-01-16T05:57:58;0.00;99.90
33139;DHT22;19501;50.948;5.316;2024-01-16T06:00:26;-0.10;99.90
33139;DHT22;19501;50.948;5.316;2024-01-16T06:02:54;-0.30;99.90
33139;DHT22;19501;50.948;5.316;2024-01-16T06:05:20;-0.40;99.90
33139;DHT22;19501;50.948;5.316;2024-01-16T06:07:45;-0.50;99.90
33139;DHT22;19501;50.948;5.316;2024-01-16T06:10:14;-0.30;99.90
33139;DHT22;19501;50.948;5.316;2024-01-16T06:12:42;-0.30;99.90
33139;DHT22;19501;50.948;5.316;2024-01-16T06:15:08;-0.50;99.90
33139;DHT22;19501;50.948;5.316;2024-01-16T06:17:36;-0.70;99.90
33139;DHT22;19501;50.948;5.316;2024-01-16T06:20:02;-0.70;99.90
33139;DHT22;19501;50.948;5.316;2024-01-16T06:22:28;-0.70;99.90
33139;DHT22;19501;50.948;5.316;2024-01-16T06:24:56;-0.80;99.90
33139;DHT22;19501;50.948;5.316;2024-01-16T06:27:21;-0.90;99.90
33139;DHT22;19501;50.948;5.316;2024-01-16T06:29:48;-0.90;99.90
33139;DHT22;19501;50.948;5.316;2024-01-16T06:32:14;-1.00;99.90
33139;DHT22;19501;50.948;5.316;2024-01-16T06:34:40;-1.00;99.90
33139;DHT22;19501;50.948;5.316;2024-01-16T06:37:05;-0.90;99.90
33139;DHT22;19501;50.948;5.316;2024-01-16T06:39:31;-1.00;99.90
33139;DHT22;19501;50.948;5.316;2024-01-16T06:41:57;-1.00;99.90
33139;DHT22;19501;50.948;5.316;2024-01-16T06:44:22;-1.10;99.90
33139;DHT22;19501;50.948;5.316;2024-01-16T06:46:48;-1.10;99.90
33139;DHT22;19501;50.948;5.316;2024-01-16T06:49:14;-1.10;99.90
33139;DHT22;19501;50.948;5.316;2024-01-16T06:51:39;-0.90;99.90
33139;DHT22;19501;50.948;5.316;2024-01-16T06:54:05;-1.10;99.90
33139;DHT22;19501;50.948;5.316;2024-01-16T06:56:31;-1.10;99.90
33139;DHT22;19501;50.948;5.316;2024-01-16T06:58:57;-1.10;99.90
33139;DHT22;19501;50.948;5.316;2024-01-16T07:01:25;-1.10;99.90
33139;DHT22;19501;50.948;5.316;2024-01-16T07:03:54;-1.10;99.90
33139;DHT22;19501;50.948;5.316;2024-01-16T07:06:19;-1.10;99.90
33139;DHT22;19501;50.948;5.316;2024-01-16T07:08:45;-1.10;99.90
33139;DHT22;19501;50.948;5.316;2024-01-16T07:11:10;-1.10;99.90
33139;DHT22;19501;50.948;5.316;2024-01-16T07:13:39;-1.10;99.90
33139;DHT22;19501;50.948;5.316;2024-01-16T07:16:06;-1.00;99.90
33139;DHT22;19501;50.948;5.316;2024-01-16T07:18:32;-1.00;99.90
33139;DHT22;19501;50.948;5.316;2024-01-16T07:20:58;-1.10;99.90
33139;DHT22;19501;50.948;5.316;2024-01-16T07:23:24;-1.00;99.90
33139;DHT22;19501;50.948;5.316;2024-01-16T07:25:50;-1.10;99.90
33139;DHT22;19501;50.948;5.316;2024-01-16T07:28:17;-1.10;99.90
33139;DHT22;19501;50.948;5.316;2024-01-16T07:30:44;-1.00;99.90
33139;DHT22;19501;50.948;5.316;2024-01-16T07:33:10;-1.00;99.90
33139;DHT22;19501;50.948;5.316;2024-01-16T07:35:36;-0.90;99.90
33139;DHT22;19501;50.948;5.316;2024-01-16T07:38:03;-0.90;99.90
33139;DHT22;19501;50.948;5.316;2024-01-16T07:40:28;-0.90;99.90
33139;DHT22;19501;50.948;5.316;2024-01-16T07:42:54;-0.90;99.90
33139;DHT22;19501;50.948;5.316;2024-01-16T07:45:19;-0.90;99.90
33139;DHT22;19501;50.948;5.316;2024-01-16T07:47:45;-1.00;99.90
33139;DHT22;19501;50.948;5.316;2024-01-16T07:50:11;-0.70;99.90
33139;DHT22;19501;50.948;5.316;2024-01-16T07:52:36;-0.60;99.90
33139;DHT22;19501;50.948;5.316;2024-01-16T07:55:02;-0.70;99.90
33139;DHT22;19501;50.948;5.316;2024-01-16T07:57:28;-0.90;99.90
33139;DHT22;19501;50.948;5.316;2024-01-16T07:59:54;-0.90;99.90
33139;DHT22;19501;50.948;5.316;2024-01-16T08:02:20;-0.90;99.90
33139;DHT22;19501;50.948;5.316;2024-01-16T08:04:45;-0.90;99.90
33139;DHT22;19501;50.948;5.316;2024-01-16T08:07:11;-1.00;99.90
33139;DHT22;19501;50.948;5.316;2024-01-16T08:09:37;-0.90;99.90
33139;DHT22;19501;50.948;5.316;2024-01-16T08:12:02;-0.80;99.90
33139;DHT22;19501;50.948;5.316;2024-01-16T08:14:29;-0.70;99.90
33139;DHT22;19501;50.948;5.316;2024-01-16T08:16:54;-0.60;99.90
33139;DHT22;19501;50.948;5.316;2024-01-16T08:19:20;-0.50;99.90
33139;DHT22;19501;50.948;5.316;2024-01-16T08:21:46;-0.60;99.90
33139;DHT22;19501;50.948;5.316;2024-01-16T08:24:11;-0.40;99.90
33139;DHT22;19501;50.948;5.316;2024-01-16T08:26:37;-0.40;99.90
33139;DHT22;19501;50.948;5.316;2024-01-16T08:29:03;-0.40;99.90
33139;DHT22;19501;50.948;5.316;2024-01-16T08:31:29;-0.40;99.90
33139;DHT22;19501;50.948;5.316;2024-01-16T08:33:54;-0.40;99.90
33139;DHT22;19501;50.948;5.316;2024-01-16T08:36:22;-0.40;99.90
33139;DHT22;19501;50.948;5.316;2024-01-16T08:38:48;-0.30;99.90
33139;DHT22;19501;50.948;5.316;2024-01-16T08:41:13;-0.20;99.90
33139;DHT22;19501;50.948;5.316;2024-01-16T08:43:39;-0.20;99.90
33139;DHT22;19501;50.948;5.316;2024-01-16T08:46:07;-0.20;99.90
33139;DHT22;19501;50.948;5.316;2024-01-16T08:48:32;0.00;99.90
33139;DHT22;19501;50.948;5.316;2024-01-16T08:50:58;-0.10;99.90
33139;DHT22;19501;50.948;5.316;2024-01-16T08:53:24;0.00;99.90
33139;DHT22;19501;50.948;5.316;2024-01-16T08:55:50;0.10;99.90
33139;DHT22;19501;50.948;5.316;2024-01-16T08:58:18;0.30;99.90
33139;DHT22;19501;50.948;5.316;2024-01-16T09:00:44;0.20;99.90
33139;DHT22;19501;50.948;5.316;2024-01-16T09:03:11;0.00;99.90
33139;DHT22;19501;50.948;5.316;2024-01-16T09:05:37;0.10;99.90
33139;DHT22;19501;50.948;5.316;2024-01-16T09:08:04;0.40;99.90
33139;DHT22;19501;50.948;5.316;2024-01-16T09:10:30;0.10;99.90
33139;DHT22;19501;50.948;5.316;2024-01-16T09:12:55;0.20;99.90
33139;DHT22;19501;50.948;5.316;2024-01-16T09:15:21;0.20;99.90
33139;DHT22;19501;50.948;5.316;2024-01-16T09:17:47;0.30;99.90
33139;DHT22;19501;50.948;5.316;2024-01-16T09:20:12;0.20;99.90
33139;DHT22;19501;50.948;5.316;2024-01-16T09:22:38;0.30;99.90
33139;DHT22;19501;50.948;5.316;2024-01-16T09:25:04;0.40;99.90
33139;DHT22;19501;50.948;5.316;2024-01-16T09:27:30;0.40;99.90
33139;DHT22;19501;50.948;5.316;2024-01-16T09:29:56;0.30;99.90
33139;DHT22;19501;50.948;5.316;2024-01-16T09:32:22;0.40;99.90
33139;DHT22;19501;50.948;5.316;2024-01-16T09:34:47;0.50;99.90
33139;DHT22;19501;50.948;5.316;2024-01-16T09:37:13;0.60;99.90
33139;DHT22;19501;50.948;5.316;2024-01-16T09:39:40;0.40;99.90
33139;DHT22;19501;50.948;5.316;2024-01-16T09:42:06;0.30;99.90
33139;DHT22;19501;50.948;5.316;2024-01-16T09:44:32;0.30;99.90
33139;DHT22;19501;50.948;5.316;2024-01-16T09:47:01;0.40;99.90
33139;DHT22;19501;50.948;5.316;2024-01-16T09:49:32;0.20;99.90
33139;DHT22;19501;50.948;5.316;2024-01-16T09:51:57;0.50;99.90
33139;DHT22;19501;50.948;5.316;2024-01-16T09:54:27;0.30;99.90
33139;DHT22;19501;50.948;5.316;2024-01-16T09:56:58;0.20;99.90
33139;DHT22;19501;50.948;5.316;2024-01-16T09:59:24;0.30;99.90
33139;DHT22;19501;50.948;5.316;2024-01-16T10:01:52;0.30;99.90
33139;DHT22;19501;50.948;5.316;2024-01-16T10:04:19;0.40;99.90
33139;DHT22;19501;50.948;5.316;2024-01-16T10:06:46;0.20;99.90
33139;DHT22;19501;50.948;5.316;2024-01-16T10:09:13;0.30;99.90
33139;DHT22;19501;50.948;5.316;2024-01-16T10:11:39;0.60;99.90
33139;DHT22;19501;50.948;5.316;2024-01-16T10:14:05;0.30;99.90
33139;DHT22;19501;50.948;5.316;2024-01-16T10:16:57;0.40;99.90
33139;DHT22;19501;50.948;5.316;2024-01-16T10:19:29;0.30;99.90
33139;DHT22;19501;50.948;5.316;2024-01-16T10:22:06;0.40;99.90
33139;DHT22;19501;50.948;5.316;2024-01-16T10:24:32;0.50;99.90
33139;DHT22;19501;50.948;5.316;2024-01-16T10:27:01;0.50;99.90
33139;DHT22;19501;50.948;5.316;2024-01-16T10:29:29;0.60;99.90
33139;DHT22;19501;50.948;5.316;2024-01-16T10:31:57;0.70;99.90
33139;DHT22;19501;50.948;5.316;2024-01-16T10:34:23;0.80;99.90
33139;DHT22;19501;50.948;5.316;2024-01-16T10:36:50;0.90;99.90
33139;DHT22;19501;50.948;5.316;2024-01-16T10:39:19;0.90;99.90
33139;DHT22;19501;50.948;5.316;2024-01-16T10:41:57;0.80;99.90
33139;DHT22;19501;50.948;5.316;2024-01-16T10:44:23;0.90;99.90
33139;DHT22;19501;50.948;5.316;2024-01-16T10:46:49;0.90;99.90
33139;DHT22;19501;50.948;5.316;2024-01-16T10:49:15;0.90;99.90
33139;DHT22;19501;50.948;5.316;2024-01-16T10:51:43;0.90;99.90
33139;DHT22;19501;50.948;5.316;2024-01-16T10:54:13;1.00;99.90
33139;DHT22;19501;50.948;5.316;2024-01-16T10:56:44;0.90;99.90
33139;DHT22;19501;50.948;5.316;2024-01-16T10:59:39;1.00;99.90
33139;DHT22;19501;50.948;5.316;2024-01-16T11:02:11;1.20;99.90
33139;DHT22;19501;50.948;5.316;2024-01-16T11:04:39;1.10;99.90
33139;DHT22;19501;50.948;5.316;2024-01-16T11:07:06;1.20;99.90
33139;DHT22;19501;50.948;5.316;2024-01-16T11:09:32;1.20;99.90
33139;DHT22;19501;50.948;5.316;2024-01-16T11:11:58;1.10;99.90
33139;DHT22;19501;50.948;5.316;2024-01-16T11:14:25;1.30;99.90
33139;DHT22;19501;50.948;5.316;2024-01-16T11:16:51;1.40;99.90
33139;DHT22;19501;50.948;5.316;2024-01-16T11:19:19;1.40;99.90
33139;DHT22;19501;50.948;5.316;2024-01-16T11:21:46;1.40;99.90
33139;DHT22;19501;50.948;5.316;2024-01-16T11:24:12;1.40;99.90
33139;DHT22;19501;50.948;5.316;2024-01-16T11:26:41;1.60;99.90
33139;DHT22;19501;50.948;5.316;2024-01-16T11:31:51;1.70;99.90
33139;DHT22;19501;50.948;5.316;2024-01-16T11:37:07;1.70;99.90
33139;DHT22;19501;50.948;5.316;2024-01-16T11:39:34;2.00;99.90
33139;DHT22;19501;50.948;5.316;2024-01-16T11:42:00;2.30;99.90
33139;DHT22;19501;50.948;5.316;2024-01-16T11:47:22;3.50;99.90
33139;DHT22;19501;50.948;5.316;2024-01-16T11:50:07;3.70;99.90
33139;DHT22;19501;50.948;5.316;2024-01-16T11:55:25;3.90;99.90
33139;DHT22;19501;50.948;5.316;2024-01-16T12:00:49;3.50;99.90
33139;DHT22;19501;50.948;5.316;2024-01-16T12:03:21;3.90;99.90
33139;DHT22;19501;50.948;5.316;2024-01-16T12:05:59;4.30;99.90
33139;DHT22;19501;50.948;5.316;2024-01-16T12:08:28;4.30;99.90
33139;DHT22;19501;50.948;5.316;2024-01-16T12:10:54;4.50;99.90
33139;DHT22;19501;50.948;5.316;2024-01-16T12:13:20;4.60;99.90
33139;DHT22;19501;50.948;5.316;2024-01-16T12:15:46;4.80;99.90
33139;DHT22;19501;50.948;5.316;2024-01-16T12:18:18;4.10;99.90
33139;DHT22;19501;50.948;5.316;2024-01-16T12:20:44;3.90;99.90
33139;DHT22;19501;50.948;5.316;2024-01-16T12:23:09;4.20;99.90
33139;DHT22;19501;50.948;5.316;2024-01-16T12:25:37;4.30;99.90
33139;DHT22;19501;50.948;5.316;2024-01-16T12:28:04;4.00;99.90
33139;DHT22;19501;50.948;5.316;2024-01-16T12:30:31;4.10;99.90
33139;DHT22;19501;50.948;5.316;2024-01-16T12:35:36;5.00;99.90
33139;DHT22;19501;50.948;5.316;2024-01-16T12:38:04;4.80;99.90
33139;DHT22;19501;50.948;5.316;2024-01-16T12:40:38;4.90;99.90
33139;DHT22;19501;50.948;5.316;2024-01-16T12:43:08;4.90;99.90
33139;DHT22;19501;50.948;5.316;2024-01-16T12:45:36;5.30;99.90
33139;DHT22;19501;50.948;5.316;2024-01-16T12:48:03;5.70;99.90
33139;DHT22;19501;50.948;5.316;2024-01-16T12:50:32;5.60;99.90
33139;DHT22;19501;50.948;5.316;2024-01-16T12:53:05;5.60;99.90
33139;DHT22;19501;50.948;5.316;2024-01-16T12:55:32;5.30;99.90
33139;DHT22;19501;50.948;5.316;2024-01-16T12:58:20;4.60;99.90
33139;DHT22;19501;50.948;5.316;2024-01-16T13:00:47;5.10;99.90
33139;DHT22;19501;50.948;5.316;2024-01-16T13:03:16;5.70;99.90
33139;DHT22;19501;50.948;5.316;2024-01-16T13:05:43;5.80;99.90
33139;DHT22;19501;50.948;5.316;2024-01-16T13:08:09;6.30;99.90
33139;DHT22;19501;50.948;5.316;2024-01-16T13:10:35;6.20;99.90
33139;DHT22;19501;50.948;5.316;2024-01-16T13:13:17;5.70;99.90
33139;DHT22;19501;50.948;5.316;2024-01-16T13:15:44;5.70;99.90
33139;DHT22;19501;50.948;5.316;2024-01-16T13:18:21;5.80;99.90
33139;DHT22;19501;50.948;5.316;2024-01-16T13:20:49;5.90;99.90
33139;DHT22;19501;50.948;5.316;2024-01-16T13:23:14;5.70;99.90
33139;DHT22;19501;50.948;5.316;2024-01-16T13:25:42;6.30;99.90
33139;DHT22;19501;50.948;5.316;2024-01-16T13:28:09;6.60;99.90
33139;DHT22;19501;50.948;5.316;2024-01-16T13:30:37;6.50;99.90
33139;DHT22;19501;50.948;5.316;2024-01-16T13:33:04;6.80;99.90
33139;DHT22;19501;50.948;5.316;2024-01-16T13:35:30;6.90;99.90
33139;DHT22;19501;50.948;5.316;2024-01-16T13:37:56;6.70;99.90
33139;DHT22;19501;50.948;5.316;2024-01-16T13:40:22;6.90;99.90
33139;DHT22;19501;50.948;5.316;2024-01-16T13:42:48;7.10;99.90
33139;DHT22;19501;50.948;5.316;2024-01-16T13:45:14;7.20;99.90
33139;DHT22;19501;50.948;5.316;2024-01-16T13:47:40;7.30;99.90
33139;DHT22;19501;50.948;5.316;2024-01-16T13:50:09;7.20;99.90
33139;DHT22;19501;50.948;5.316;2024-01-16T13:52:36;7.20;99.90
33139;DHT22;19501;50.948;5.316;2024-01-16T13:55:02;6.60;99.90
33139;DHT22;19501;50.948;5.316;2024-01-16T13:57:31;6.50;99.90
33139;DHT22;19501;50.948;5.316;2024-01-16T13:59:57;6.10;99.90
33139;DHT22;19501;50.948;5.316;2024-01-16T14:02:23;5.50;99.90
33139;DHT22;19501;50.948;5.316;2024-01-16T14:04:48;5.70;99.90
33139;DHT22;19501;50.948;5.316;2024-01-16T14:07:14;6.10;99.90
33139;DHT22;19501;50.948;5.316;2024-01-16T14:09:41;5.50;99.90
33139;DHT22;19501;50.948;5.316;2024-01-16T14:12:07;5.60;99.90
33139;DHT22;19501;50.948;5.316;2024-01-16T14:14:34;6.20;99.90
33139;DHT22;19501;50.948;5.316;2024-01-16T14:17:00;5.90;99.90
33139;DHT22;19501;50.948;5.316;2024-01-16T14:19:26;6.10;99.90
33139;DHT22;19501;50.948;5.316;2024-01-16T14:21:52;5.40;99.90
33139;DHT22;19501;50.948;5.316;2024-01-16T14:24:18;5.60;99.90
33139;DHT22;19501;50.948;5.316;2024-01-16T14:26:44;5.40;99.90
33139;DHT22;19501;50.948;5.316;2024-01-16T14:29:11;5.70;99.90
33139;DHT22;19501;50.948;5.316;2024-01-16T14:31:36;5.90;99.90
33139;DHT22;19501;50.948;5.316;2024-01-16T14:34:12;6.00;99.90
33139;DHT22;19501;50.948;5.316;2024-01-16T14:36:41;4.90;99.90
33139;DHT22;19501;50.948;5.316;2024-01-16T14:39:07;4.70;99.90
33139;DHT22;19501;50.948;5.316;2024-01-16T14:41:41;4.40;99.90
33139;DHT22;19501;50.948;5.316;2024-01-16T14:44:10;4.10;99.90
33139;DHT22;19501;50.948;5.316;2024-01-16T14:46:36;4.00;99.90
33139;DHT22;19501;50.948;5.316;2024-01-16T14:49:01;3.90;99.90
33139;DHT22;19501;50.948;5.316;2024-01-16T14:51:28;4.00;99.90
33139;DHT22;19501;50.948;5.316;2024-01-16T14:53:53;3.50;99.90
33139;DHT22;19501;50.948;5.316;2024-01-16T14:56:19;3.50;99.90
33139;DHT22;19501;50.948;5.316;2024-01-16T14:58:45;3.30;99.90
33139;DHT22;19501;50.948;5.316;2024-01-16T15:01:11;3.10;99.90
33139;DHT22;19501;50.948;5.316;2024-01-16T15:03:37;2.80;99.90
33139;DHT22;19501;50.948;5.316;2024-01-16T15:06:03;2.90;99.90
33139;DHT22;19501;50.948;5.316;2024-01-16T15:08:30;3.00;99.90
33139;DHT22;19501;50.948;5.316;2024-01-16T15:10:57;2.90;99.90
33139;DHT22;19501;50.948;5.316;2024-01-16T15:13:25;2.80;99.90
33139;DHT22;19501;50.948;5.316;2024-01-16T15:15:51;3.00;99.90
33139;DHT22;19501;50.948;5.316;2024-01-16T15:18:19;3.00;99.90
33139;DHT22;19501;50.948;5.316;2024-01-16T15:20:45;2.90;99.90
33139;DHT22;19501;50.948;5.316;2024-01-16T15:23:11;2.80;99.90
33139;DHT22;19501;50.948;5.316;2024-01-16T15:25:37;2.70;99.90
33139;DHT22;19501;50.948;5.316;2024-01-16T15:28:03;2.50;99.90
33139;DHT22;19501;50.948;5.316;2024-01-16T15:30:29;2.40;99.90
33139;DHT22;19501;50.948;5.316;2024-01-16T15:32:58;2.50;99.90
33139;DHT22;19501;50.948;5.316;2024-01-16T15:35:24;2.50;99.90
33139;DHT22;19501;50.948;5.316;2024-01-16T15:37:50;2.30;99.90
33139;DHT22;19501;50.948;5.316;2024-01-16T15:40:15;2.20;99.90
33139;DHT22;19501;50.948;5.316;2024-01-16T15:42:41;2.20;99.90
33139;DHT22;19501;50.948;5.316;2024-01-16T15:45:10;2.10;99.90
33139;DHT22;19501;50.948;5.316;2024-01-16T15:47:36;2.10;99.90
33139;DHT22;19501;50.948;5.316;2024-01-16T15:50:03;2.20;99.90
33139;DHT22;19501;50.948;5.316;2024-01-16T15:52:30;2.10;99.90
33139;DHT22;19501;50.948;5.316;2024-01-16T15:54:56;1.90;99.90
33139;DHT22;19501;50.948;5.316;2024-01-16T15:57:22;1.80;99.90